sensor_id;sensor_type;location;lat;lon;timestamp;temperature;humidity
27667;DHT22;15074;50.940;5.282;2023-07-31T00:00:34;16.60;99.90
27667;DHT22;15074;50.940;5.282;2023-07-31T00:03:00;16.50;99.90
27667;DHT22;15074;50.940;5.282;2023-07-31T00:05:26;16.40;99.90
27667;DHT22;15074;50.940;5.282;2023-07-31T00:07:51;16.50;99.90
27667;DHT22;15074;50.940;5.282;2023-07-31T00:10:19;16.50;99.90
27667;DHT22;15074;50.940;5.282;2023-07-31T00:12:45;16.50;99.90
27667;DHT22;15074;50.940;5.282;2023-07-31T00:15:11;16.50;99.90
27667;DHT22;15074;50.940;5.282;2023-07-31T00:17:37;16.40;99.90
27667;DHT22;15074;50.940;5.282;2023-07-31T00:20:03;16.40;99.90
27667;DHT22;15074;50.940;5.282;2023-07-31T00:22:29;16.40;99.90
27667;DHT22;15074;50.940;5.282;2023-07-31T00:24:56;16.50;99.90
27667;DHT22;15074;50.940;5.282;2023-07-31T00:27:21;16.40;99.90
27667;DHT22;15074;50.940;5.282;2023-07-31T00:29:47;16.40;99.90
27667;DHT22;15074;50.940;5.282;2023-07-31T00:32:13;16.40;99.90
27667;DHT22;15074;50.940;5.282;2023-07-31T00:34:38;16.40;99.90
27667;DHT22;15074;50.940;5.282;2023-07-31T00:37:04;16.40;99.90
27667;DHT22;15074;50.940;5.282;2023-07-31T00:39:30;16.40;99.90
27667;DHT22;15074;50.940;5.282;2023-07-31T00:41:56;16.40;99.90
27667;DHT22;15074;50.940;5.282;2023-07-31T00:44:22;16.40;99.90
27667;DHT22;15074;50.940;5.282;2023-07-31T00:46:48;16.40;99.90
27667;DHT22;15074;50.940;5.282;2023-07-31T00:49:15;16.50;99.90
27667;DHT22;15074;50.940;5.282;2023-07-31T00:51:41;16.50;99.90
27667;DHT22;15074;50.940;5.282;2023-07-31T00:54:06;16.60;99.90
27667;DHT22;15074;50.940;5.282;2023-07-31T00:56:32;16.50;99.90
27667;DHT22;15074;50.940;5.282;2023-07-31T00:58:58;16.50;99.90
27667;DHT22;15074;50.940;5.282;2023-07-31T01:01:24;16.60;99.90
27667;DHT22;15074;50.940;5.282;2023-07-31T01:03:51;16.60;99.90
27667;DHT22;15074;50.940;5.282;2023-07-31T01:09:03;16.70;99.90
27667;DHT22;15074;50.940;5.282;2023-07-31T01:11:48;16.70;99.90
27667;DHT22;15074;50.940;5.282;2023-07-31T01:14:16;16.70;99.90
27667;DHT22;15074;50.940;5.282;2023-07-31T01:16:42;16.80;99.90
27667;DHT22;15074;50.940;5.282;2023-07-31T01:19:09;16.90;99.90
27667;DHT22;15074;50.940;5.282;2023-07-31T01:26:49;16.90;99.90
27667;DHT22;15074;50.940;5.282;2023-07-31T01:29:44;16.90;99.90
27667;DHT22;15074;50.940;5.282;2023-07-31T01:32:12;16.90;99.90
27667;DHT22;15074;50.940;5.282;2023-07-31T01:34:39;16.90;99.90
27667;DHT22;15074;50.940;5.282;2023-07-31T01:37:08;17.00;99.90
27667;DHT22;15074;50.940;5.282;2023-07-31T01:39:35;17.00;99.90
27667;DHT22;15074;50.940;5.282;2023-07-31T01:42:00;17.00;99.90
27667;DHT22;15074;50.940;5.282;2023-07-31T01:44:26;17.10;99.90
27667;DHT22;15074;50.940;5.282;2023-07-31T01:46:51;17.10;99.90
27667;DHT22;15074;50.940;5.282;2023-07-31T01:49:17;17.10;99.90
27667;DHT22;15074;50.940;5.282;2023-07-31T01:51:43;17.10;99.90
27667;DHT22;15074;50.940;5.282;2023-07-31T01:54:08;17.10;99.90
27667;DHT22;15074;50.940;5.282;2023-07-31T01:56:34;17.10;99.90
27667;DHT22;15074;50.940;5.282;2023-07-31T01:59:00;17.10;99.90
27667;DHT22;15074;50.940;5.282;2023-07-31T02:01:25;17.10;99.90
27667;DHT22;15074;50.940;5.282;2023-07-31T02:03:51;17.10;99.90
27667;DHT22;15074;50.940;5.282;2023-07-31T02:06:16;17.10;99.90
27667;DHT22;15074;50.940;5.282;2023-07-31T02:08:42;17.10;99.90
27667;DHT22;15074;50.940;5.282;2023-07-31T02:11:08;17.10;99.90
27667;DHT22;15074;50.940;5.282;2023-07-31T02:13:33;17.20;99.90
27667;DHT22;15074;50.940;5.282;2023-07-31T02:15:59;17.20;99.90
27667;DHT22;15074;50.940;5.282;2023-07-31T02:18:24;17.10;99.90
27667;DHT22;15074;50.940;5.282;2023-07-31T02:20:51;17.20;99.90
27667;DHT22;15074;50.940;5.282;2023-07-31T02:23:17;17.20;99.90
27667;DHT22;15074;50.940;5.282;2023-07-31T02:25:44;17.20;99.90
27667;DHT22;15074;50.940;5.282;2023-07-31T02:28:09;17.20;99.90
27667;DHT22;15074;50.940;5.282;2023-07-31T02:30:35;17.10;99.90
27667;DHT22;15074;50.940;5.282;2023-07-31T02:33:01;17.10;99.90
27667;DHT22;15074;50.940;5.282;2023-07-31T02:35:27;17.10;99.90
27667;DHT22;15074;50.940;5.282;2023-07-31T02:37:52;17.10;99.90
27667;DHT22;15074;50.940;5.282;2023-07-31T02:40:18;17.10;99.90
27667;DHT22;15074;50.940;5.282;2023-07-31T02:42:44;17.00;99.90
27667;DHT22;15074;50.940;5.282;2023-07-31T02:45:09;17.00;99.90
27667;DHT22;15074;50.940;5.282;2023-07-31T02:47:35;17.00;99.90
27667;DHT22;15074;50.940;5.282;2023-07-31T02:50:05;17.00;99.90
27667;DHT22;15074;50.940;5.282;2023-07-31T02:52:30;17.00;99.90
27667;DHT22;15074;50.940;5.282;2023-07-31T02:54:57;17.00;99.90
27667;DHT22;15074;50.940;5.282;2023-07-31T02:57:23;17.00;99.90
27667;DHT22;15074;50.940;5.282;2023-07-31T02:59:48;17.00;99.90
27667;DHT22;15074;50.940;5.282;2023-07-31T03:02:14;17.00;99.90
27667;DHT22;15074;50.940;5.282;2023-07-31T03:04:40;17.10;99.90
27667;DHT22;15074;50.940;5.282;2023-07-31T03:07:06;17.00;99.90
27667;DHT22;15074;50.940;5.282;2023-07-31T03:09:31;17.00;99.90
27667;DHT22;15074;50.940;5.282;2023-07-31T03:11:57;17.10;99.90
27667;DHT22;15074;50.940;5.282;2023-07-31T03:14:23;17.10;99.90
27667;DHT22;15074;50.940;5.282;2023-07-31T03:16:49;17.10;99.90
27667;DHT22;15074;50.940;5.282;2023-07-31T03:19:14;17.10;99.90
27667;DHT22;15074;50.940;5.282;2023-07-31T03:21:40;17.00;99.90
27667;DHT22;15074;50.940;5.282;2023-07-31T03:24:06;17.10;99.90
27667;DHT22;15074;50.940;5.282;2023-07-31T03:26:32;17.10;99.90
27667;DHT22;15074;50.940;5.282;2023-07-31T03:28:58;17.20;99.90
27667;DHT22;15074;50.940;5.282;2023-07-31T03:31:23;17.10;99.90
27667;DHT22;15074;50.940;5.282;2023-07-31T03:33:49;17.10;99.90
27667;DHT22;15074;50.940;5.282;2023-07-31T03:36:15;17.10;99.90
27667;DHT22;15074;50.940;5.282;2023-07-31T03:38:40;17.20;99.90
27667;DHT22;15074;50.940;5.282;2023-07-31T03:41:06;17.20;99.90
27667;DHT22;15074;50.940;5.282;2023-07-31T03:43:32;17.20;99.90
27667;DHT22;15074;50.940;5.282;2023-07-31T03:46:01;17.20;99.90
27667;DHT22;15074;50.940;5.282;2023-07-31T03:48:26;17.20;99.90
27667;DHT22;15074;50.940;5.282;2023-07-31T03:50:52;17.20;99.90
27667;DHT22;15074;50.940;5.282;2023-07-31T03:53:18;17.20;99.90
27667;DHT22;15074;50.940;5.282;2023-07-31T03:55:43;17.20;99.90
27667;DHT22;15074;50.940;5.282;2023-07-31T03:58:09;17.20;99.90
27667;DHT22;15074;50.940;5.282;2023-07-31T04:00:35;17.20;99.90
27667;DHT22;15074;50.940;5.282;2023-07-31T04:03:00;17.20;99.90
27667;DHT22;15074;50.940;5.282;2023-07-31T04:05:26;17.30;99.90
27667;DHT22;15074;50.940;5.282;2023-07-31T04:07:52;17.30;99.90
27667;DHT22;15074;50.940;5.282;2023-07-31T04:10:17;17.20;99.90
27667;DHT22;15074;50.940;5.282;2023-07-31T04:12:43;17.20;99.90
27667;DHT22;15074;50.940;5.282;2023-07-31T04:15:09;17.20;99.90
27667;DHT22;15074;50.940;5.282;2023-07-31T04:17:36;17.20;99.90
27667;DHT22;15074;50.940;5.282;2023-07-31T04:20:02;17.20;99.90
27667;DHT22;15074;50.940;5.282;2023-07-31T04:22:28;17.20;99.90
27667;DHT22;15074;50.940;5.282;2023-07-31T04:24:53;17.20;99.90
27667;DHT22;15074;50.940;5.282;2023-07-31T04:27:19;17.20;99.90
27667;DHT22;15074;50.940;5.282;2023-07-31T04:29:44;17.20;99.90
27667;DHT22;15074;50.940;5.282;2023-07-31T04:32:12;17.20;99.90
27667;DHT22;15074;50.940;5.282;2023-07-31T04:34:37;17.20;99.90
27667;DHT22;15074;50.940;5.282;2023-07-31T04:37:03;17.20;99.90
27667;DHT22;15074;50.940;5.282;2023-07-31T04:39:29;17.20;99.90
27667;DHT22;15074;50.940;5.282;2023-07-31T04:41:54;17.20;99.90
27667;DHT22;15074;50.940;5.282;2023-07-31T04:44:20;17.10;99.90
27667;DHT22;15074;50.940;5.282;2023-07-31T04:46:46;17.00;99.90
27667;DHT22;15074;50.940;5.282;2023-07-31T04:49:11;16.90;99.90
27667;DHT22;15074;50.940;5.282;2023-07-31T04:51:37;16.80;99.90
27667;DHT22;15074;50.940;5.282;2023-07-31T04:54:03;16.80;99.90
27667;DHT22;15074;50.940;5.282;2023-07-31T04:56:28;16.80;99.90
27667;DHT22;15074;50.940;5.282;2023-07-31T04:58:54;16.70;99.90
27667;DHT22;15074;50.940;5.282;2023-07-31T05:01:20;16.70;99.90
27667;DHT22;15074;50.940;5.282;2023-07-31T05:03:46;16.50;99.90
27667;DHT22;15074;50.940;5.282;2023-07-31T05:06:11;16.50;99.90
27667;DHT22;15074;50.940;5.282;2023-07-31T05:08:38;16.50;99.90
27667;DHT22;15074;50.940;5.282;2023-07-31T05:11:04;16.50;99.90
27667;DHT22;15074;50.940;5.282;2023-07-31T05:13:30;16.40;99.90
27667;DHT22;15074;50.940;5.282;2023-07-31T05:15:55;16.40;99.90
27667;DHT22;15074;50.940;5.282;2023-07-31T05:18:21;16.50;99.90
27667;DHT22;15074;50.940;5.282;2023-07-31T05:20:47;16.50;99.90
27667;DHT22;15074;50.940;5.282;2023-07-31T05:23:12;16.50;99.90
27667;DHT22;15074;50.940;5.282;2023-07-31T05:25:38;16.60;99.90
27667;DHT22;15074;50.940;5.282;2023-07-31T05:28:04;16.60;99.90
27667;DHT22;15074;50.940;5.282;2023-07-31T05:30:30;16.60;99.90
27667;DHT22;15074;50.940;5.282;2023-07-31T05:32:56;16.60;99.90
27667;DHT22;15074;50.940;5.282;2023-07-31T05:35:22;16.60;99.90
27667;DHT22;15074;50.940;5.282;2023-07-31T05:37:47;16.70;99.90
27667;DHT22;15074;50.940;5.282;2023-07-31T05:40:14;16.70;99.90
27667;DHT22;15074;50.940;5.282;2023-07-31T05:42:39;16.70;99.90
27667;DHT22;15074;50.940;5.282;2023-07-31T05:45:06;16.70;99.90
27667;DHT22;15074;50.940;5.282;2023-07-31T05:47:32;16.70;99.90
27667;DHT22;15074;50.940;5.282;2023-07-31T05:49:58;16.70;99.90
27667;DHT22;15074;50.940;5.282;2023-07-31T05:52:24;16.70;99.90
27667;DHT22;15074;50.940;5.282;2023-07-31T05:54:50;16.70;99.90
27667;DHT22;15074;50.940;5.282;2023-07-31T05:57:16;16.70;99.90
27667;DHT22;15074;50.940;5.282;2023-07-31T05:59:41;16.70;99.90
27667;DHT22;15074;50.940;5.282;2023-07-31T06:02:07;16.70;99.90
27667;DHT22;15074;50.940;5.282;2023-07-31T06:04:33;16.60;99.90
27667;DHT22;15074;50.940;5.282;2023-07-31T06:06:59;16.70;99.90
27667;DHT22;15074;50.940;5.282;2023-07-31T06:09:25;16.70;99.90
27667;DHT22;15074;50.940;5.282;2023-07-31T06:11:51;16.60;99.90
27667;DHT22;15074;50.940;5.282;2023-07-31T06:14:17;16.50;99.90
27667;DHT22;15074;50.940;5.282;2023-07-31T06:16:44;16.60;99.90
27667;DHT22;15074;50.940;5.282;2023-07-31T06:19:10;16.50;99.90
27667;DHT22;15074;50.940;5.282;2023-07-31T06:21:36;16.40;99.90
27667;DHT22;15074;50.940;5.282;2023-07-31T06:24:05;16.40;99.90
27667;DHT22;15074;50.940;5.282;2023-07-31T06:26:31;16.40;99.90
27667;DHT22;15074;50.940;5.282;2023-07-31T06:28:57;16.30;99.90
27667;DHT22;15074;50.940;5.282;2023-07-31T06:31:22;16.30;99.90
27667;DHT22;15074;50.940;5.282;2023-07-31T06:33:52;16.20;99.90
27667;DHT22;15074;50.940;5.282;2023-07-31T06:36:18;16.20;99.90
27667;DHT22;15074;50.940;5.282;2023-07-31T06:38:44;16.20;99.90
27667;DHT22;15074;50.940;5.282;2023-07-31T06:41:10;16.20;99.90
27667;DHT22;15074;50.940;5.282;2023-07-31T06:43:36;16.20;99.90
27667;DHT22;15074;50.940;5.282;2023-07-31T06:46:08;16.20;99.90
27667;DHT22;15074;50.940;5.282;2023-07-31T06:48:35;16.20;99.90
27667;DHT22;15074;50.940;5.282;2023-07-31T06:51:03;16.20;99.90
27667;DHT22;15074;50.940;5.282;2023-07-31T06:53:28;16.30;99.90
27667;DHT22;15074;50.940;5.282;2023-07-31T06:55:54;16.20;99.90
27667;DHT22;15074;50.940;5.282;2023-07-31T06:58:21;16.30;99.90
27667;DHT22;15074;50.940;5.282;2023-07-31T07:00:50;16.20;99.90
27667;DHT22;15074;50.940;5.282;2023-07-31T07:03:18;16.30;99.90
27667;DHT22;15074;50.940;5.282;2023-07-31T07:05:44;16.30;99.90
27667;DHT22;15074;50.940;5.282;2023-07-31T07:08:09;16.30;99.90
27667;DHT22;15074;50.940;5.282;2023-07-31T07:10:35;16.40;99.90
27667;DHT22;15074;50.940;5.282;2023-07-31T07:13:01;16.50;99.90
27667;DHT22;15074;50.940;5.282;2023-07-31T07:15:26;16.50;99.90
27667;DHT22;15074;50.940;5.282;2023-07-31T07:17:52;16.50;99.90
27667;DHT22;15074;50.940;5.282;2023-07-31T07:20:17;16.50;99.90
27667;DHT22;15074;50.940;5.282;2023-07-31T07:22:45;16.60;99.90
27667;DHT22;15074;50.940;5.282;2023-07-31T07:25:11;16.50;99.90
27667;DHT22;15074;50.940;5.282;2023-07-31T07:27:36;16.60;99.90
27667;DHT22;15074;50.940;5.282;2023-07-31T07:30:02;16.70;99.90
27667;DHT22;15074;50.940;5.282;2023-07-31T07:32:29;16.80;99.90
27667;DHT22;15074;50.940;5.282;2023-07-31T07:34:55;16.80;99.90
27667;DHT22;15074;50.940;5.282;2023-07-31T07:37:21;16.70;99.90
27667;DHT22;15074;50.940;5.282;2023-07-31T07:39:47;16.70;99.90
27667;DHT22;15074;50.940;5.282;2023-07-31T07:42:12;16.70;99.90
27667;DHT22;15074;50.940;5.282;2023-07-31T07:44:38;16.60;99.90
27667;DHT22;15074;50.940;5.282;2023-07-31T07:47:04;16.60;99.90
27667;DHT22;15074;50.940;5.282;2023-07-31T07:49:33;16.60;99.90
27667;DHT22;15074;50.940;5.282;2023-07-31T07:52:00;16.60;99.90
27667;DHT22;15074;50.940;5.282;2023-07-31T07:54:26;16.60;99.90
27667;DHT22;15074;50.940;5.282;2023-07-31T07:56:52;16.70;99.90
27667;DHT22;15074;50.940;5.282;2023-07-31T07:59:18;16.70;99.90
27667;DHT22;15074;50.940;5.282;2023-07-31T08:01:43;16.80;99.90
27667;DHT22;15074;50.940;5.282;2023-07-31T08:04:09;16.80;99.90
27667;DHT22;15074;50.940;5.282;2023-07-31T08:06:35;16.90;99.90
27667;DHT22;15074;50.940;5.282;2023-07-31T08:09:00;16.90;99.90
27667;DHT22;15074;50.940;5.282;2023-07-31T08:11:34;16.90;99.90
27667;DHT22;15074;50.940;5.282;2023-07-31T08:14:00;16.90;99.90
27667;DHT22;15074;50.940;5.282;2023-07-31T08:16:25;16.80;99.90
27667;DHT22;15074;50.940;5.282;2023-07-31T08:18:51;16.90;99.90
27667;DHT22;15074;50.940;5.282;2023-07-31T08:21:17;16.90;99.90
27667;DHT22;15074;50.940;5.282;2023-07-31T08:23:42;17.00;99.90
27667;DHT22;15074;50.940;5.282;2023-07-31T08:26:14;17.00;99.90
27667;DHT22;15074;50.940;5.282;2023-07-31T08:28:39;17.00;99.90
27667;DHT22;15074;50.940;5.282;2023-07-31T08:31:05;17.00;99.90
27667;DHT22;15074;50.940;5.282;2023-07-31T08:33:31;17.10;99.90
27667;DHT22;15074;50.940;5.282;2023-07-31T08:35:57;17.20;99.90
27667;DHT22;15074;50.940;5.282;2023-07-31T08:38:22;17.20;99.90
27667;DHT22;15074;50.940;5.282;2023-07-31T08:40:50;17.20;99.90
27667;DHT22;15074;50.940;5.282;2023-07-31T08:43:16;17.30;99.90
27667;DHT22;15074;50.940;5.282;2023-07-31T08:45:42;17.30;99.90
27667;DHT22;15074;50.940;5.282;2023-07-31T08:48:08;17.40;99.90
27667;DHT22;15074;50.940;5.282;2023-07-31T08:50:34;17.40;99.90
27667;DHT22;15074;50.940;5.282;2023-07-31T08:53:00;17.30;99.90
27667;DHT22;15074;50.940;5.282;2023-07-31T08:55:27;17.20;99.90
27667;DHT22;15074;50.940;5.282;2023-07-31T08:57:54;17.20;99.90
27667;DHT22;15074;50.940;5.282;2023-07-31T09:00:20;17.10;99.90
27667;DHT22;15074;50.940;5.282;2023-07-31T09:02:52;17.10;99.90
27667;DHT22;15074;50.940;5.282;2023-07-31T09:05:19;17.30;99.90
27667;DHT22;15074;50.940;5.282;2023-07-31T09:07:47;17.30;99.90
27667;DHT22;15074;50.940;5.282;2023-07-31T09:10:15;17.30;99.90
27667;DHT22;15074;50.940;5.282;2023-07-31T09:12:40;17.40;99.90
27667;DHT22;15074;50.940;5.282;2023-07-31T09:15:07;17.50;99.90
27667;DHT22;15074;50.940;5.282;2023-07-31T09:17:35;17.50;99.90
27667;DHT22;15074;50.940;5.282;2023-07-31T09:20:17;17.60;99.90
27667;DHT22;15074;50.940;5.282;2023-07-31T09:22:43;17.50;99.90
27667;DHT22;15074;50.940;5.282;2023-07-31T09:25:29;17.50;99.90
27667;DHT22;15074;50.940;5.282;2023-07-31T09:28:03;17.50;99.90
27667;DHT22;15074;50.940;5.282;2023-07-31T09:30:29;17.50;99.90
27667;DHT22;15074;50.940;5.282;2023-07-31T09:33:05;17.50;99.90
27667;DHT22;15074;50.940;5.282;2023-07-31T09:35:34;17.40;99.90
27667;DHT22;15074;50.940;5.282;2023-07-31T09:38:06;17.40;99.90
27667;DHT22;15074;50.940;5.282;2023-07-31T09:40:34;17.50;99.90
27667;DHT22;15074;50.940;5.282;2023-07-31T09:43:07;17.50;99.90
27667;DHT22;15074;50.940;5.282;2023-07-31T09:45:38;17.50;99.90
27667;DHT22;15074;50.940;5.282;2023-07-31T09:48:11;17.60;99.90
27667;DHT22;15074;50.940;5.282;2023-07-31T09:50:41;17.80;99.90
27667;DHT22;15074;50.940;5.282;2023-07-31T09:53:08;17.90;99.90
27667;DHT22;15074;50.940;5.282;2023-07-31T09:55:34;18.00;99.90
27667;DHT22;15074;50.940;5.282;2023-07-31T09:58:04;18.00;99.90
27667;DHT22;15074;50.940;5.282;2023-07-31T10:00:31;18.00;99.90
27667;DHT22;15074;50.940;5.282;2023-07-31T10:02:59;18.20;99.90
27667;DHT22;15074;50.940;5.282;2023-07-31T10:05:44;18.20;99.90
27667;DHT22;15074;50.940;5.282;2023-07-31T10:08:13;18.30;99.90
27667;DHT22;15074;50.940;5.282;2023-07-31T10:10:44;18.20;99.90
27667;DHT22;15074;50.940;5.282;2023-07-31T10:13:14;18.20;99.90
27667;DHT22;15074;50.940;5.282;2023-07-31T10:15:41;18.20;99.90
27667;DHT22;15074;50.940;5.282;2023-07-31T10:18:08;18.30;99.90
27667;DHT22;15074;50.940;5.282;2023-07-31T10:20:35;18.30;99.90
27667;DHT22;15074;50.940;5.282;2023-07-31T10:23:01;18.40;99.90
27667;DHT22;15074;50.940;5.282;2023-07-31T10:25:29;18.40;99.90
27667;DHT22;15074;50.940;5.282;2023-07-31T10:27:56;18.50;99.90
27667;DHT22;15074;50.940;5.282;2023-07-31T10:30:26;18.70;99.90
27667;DHT22;15074;50.940;5.282;2023-07-31T10:32:53;18.90;99.90
27667;DHT22;15074;50.940;5.282;2023-07-31T10:35:20;18.90;99.90
27667;DHT22;15074;50.940;5.282;2023-07-31T10:37:47;19.10;99.90
27667;DHT22;15074;50.940;5.282;2023-07-31T10:40:19;18.90;99.90
27667;DHT22;15074;50.940;5.282;2023-07-31T10:42:50;18.90;99.90
27667;DHT22;15074;50.940;5.282;2023-07-31T10:45:26;18.80;99.90
27667;DHT22;15074;50.940;5.282;2023-07-31T10:48:00;19.10;99.90
27667;DHT22;15074;50.940;5.282;2023-07-31T10:50:26;19.50;99.90
27667;DHT22;15074;50.940;5.282;2023-07-31T10:52:56;19.60;99.90
27667;DHT22;15074;50.940;5.282;2023-07-31T10:57:56;19.70;99.90
27667;DHT22;15074;50.940;5.282;2023-07-31T11:03:01;19.50;99.90
27667;DHT22;15074;50.940;5.282;2023-07-31T11:05:47;19.50;99.90
27667;DHT22;15074;50.940;5.282;2023-07-31T11:08:19;19.50;99.90
27667;DHT22;15074;50.940;5.282;2023-07-31T11:10:46;19.50;99.90
27667;DHT22;15074;50.940;5.282;2023-07-31T11:13:12;19.50;99.90
27667;DHT22;15074;50.940;5.282;2023-07-31T11:15:38;19.80;99.90
27667;DHT22;15074;50.940;5.282;2023-07-31T11:18:04;20.00;99.90
27667;DHT22;15074;50.940;5.282;2023-07-31T11:20:32;20.10;99.90
27667;DHT22;15074;50.940;5.282;2023-07-31T11:23:01;20.20;99.90
27667;DHT22;15074;50.940;5.282;2023-07-31T11:25:29;20.00;99.90
27667;DHT22;15074;50.940;5.282;2023-07-31T11:27:55;20.00;99.90
27667;DHT22;15074;50.940;5.282;2023-07-31T11:30:22;19.90;99.90
27667;DHT22;15074;50.940;5.282;2023-07-31T11:32:48;20.10;99.90
27667;DHT22;15074;50.940;5.282;2023-07-31T11:35:13;20.40;99.90
27667;DHT22;15074;50.940;5.282;2023-07-31T11:37:41;20.60;99.90
27667;DHT22;15074;50.940;5.282;2023-07-31T11:40:07;20.70;99.90
27667;DHT22;15074;50.940;5.282;2023-07-31T11:42:35;21.00;99.90
27667;DHT22;15074;50.940;5.282;2023-07-31T11:45:04;20.90;99.90
27667;DHT22;15074;50.940;5.282;2023-07-31T11:47:32;20.80;99.90
27667;DHT22;15074;50.940;5.282;2023-07-31T11:50:01;20.90;99.90
27667;DHT22;15074;50.940;5.282;2023-07-31T11:52:35;20.80;99.90
27667;DHT22;15074;50.940;5.282;2023-07-31T11:55:04;20.90;99.90
27667;DHT22;15074;50.940;5.282;2023-07-31T11:57:33;21.30;99.90
27667;DHT22;15074;50.940;5.282;2023-07-31T11:59:58;21.60;99.90
27667;DHT22;15074;50.940;5.282;2023-07-31T12:02:24;21.70;99.90
27667;DHT22;15074;50.940;5.282;2023-07-31T12:04:50;21.30;99.90
27667;DHT22;15074;50.940;5.282;2023-07-31T12:07:16;21.10;99.90
27667;DHT22;15074;50.940;5.282;2023-07-31T12:09:55;21.10;99.90
27667;DHT22;15074;50.940;5.282;2023-07-31T12:12:23;21.30;99.90
27667;DHT22;15074;50.940;5.282;2023-07-31T12:14:49;21.30;99.90
27667;DHT22;15074;50.940;5.282;2023-07-31T12:17:19;21.30;99.90
27667;DHT22;15074;50.940;5.282;2023-07-31T12:19:48;20.90;99.90
27667;DHT22;15074;50.940;5.282;2023-07-31T12:22:15;20.80;99.90
27667;DHT22;15074;50.940;5.282;2023-07-31T12:24:43;20.80;99.90
27667;DHT22;15074;50.940;5.282;2023-07-31T12:27:15;20.50;99.90
27667;DHT22;15074;50.940;5.282;2023-07-31T12:29:42;20.40;99.90
27667;DHT22;15074;50.940;5.282;2023-07-31T12:32:21;20.40;99.90
27667;DHT22;15074;50.940;5.282;2023-07-31T12:34:47;20.70;99.90
27667;DHT22;15074;50.940;5.282;2023-07-31T12:37:13;20.90;99.90
27667;DHT22;15074;50.940;5.282;2023-07-31T12:39:39;21.40;99.90
27667;DHT22;15074;50.940;5.282;2023-07-31T12:42:05;21.60;99.90
27667;DHT22;15074;50.940;5.282;2023-07-31T12:44:31;22.00;99.90
27667;DHT22;15074;50.940;5.282;2023-07-31T12:46:56;22.40;99.90
27667;DHT22;15074;50.940;5.282;2023-07-31T12:49:22;22.20;99.90
27667;DHT22;15074;50.940;5.282;2023-07-31T12:51:48;21.80;99.90
27667;DHT22;15074;50.940;5.282;2023-07-31T12:54:14;21.30;99.90
27667;DHT22;15074;50.940;5.282;2023-07-31T12:56:40;21.30;99.90
27667;DHT22;15074;50.940;5.282;2023-07-31T12:59:05;21.50;99.90
27667;DHT22;15074;50.940;5.282;2023-07-31T13:01:31;21.30;99.90
27667;DHT22;15074;50.940;5.282;2023-07-31T13:03:57;21.10;99.90
27667;DHT22;15074;50.940;5.282;2023-07-31T13:06:24;20.90;99.90
27667;DHT22;15074;50.940;5.282;2023-07-31T13:08:50;20.80;99.90
27667;DHT22;15074;50.940;5.282;2023-07-31T13:11:15;20.70;99.90
27667;DHT22;15074;50.940;5.282;2023-07-31T13:13:41;20.60;99.90
27667;DHT22;15074;50.940;5.282;2023-07-31T13:16:07;20.60;99.90
27667;DHT22;15074;50.940;5.282;2023-07-31T13:18:32;20.50;99.90
27667;DHT22;15074;50.940;5.282;2023-07-31T13:20:58;20.60;99.90
27667;DHT22;15074;50.940;5.282;2023-07-31T13:23:24;20.50;99.90
27667;DHT22;15074;50.940;5.282;2023-07-31T13:25:49;20.40;99.90
27667;DHT22;15074;50.940;5.282;2023-07-31T13:28:15;20.30;99.90
27667;DHT22;15074;50.940;5.282;2023-07-31T13:30:41;20.30;99.90
27667;DHT22;15074;50.940;5.282;2023-07-31T13:33:07;20.30;99.90
27667;DHT22;15074;50.940;5.282;2023-07-31T13:35:33;20.20;99.90
27667;DHT22;15074;50.940;5.282;2023-07-31T13:37:59;20.10;99.90
27667;DHT22;15074;50.940;5.282;2023-07-31T13:40:24;20.00;99.90
27667;DHT22;15074;50.940;5.282;2023-07-31T13:42:50;20.10;99.90
27667;DHT22;15074;50.940;5.282;2023-07-31T13:45:16;20.10;99.90
27667;DHT22;15074;50.940;5.282;2023-07-31T13:47:41;20.20;99.90
27667;DHT22;15074;50.940;5.282;2023-07-31T13:50:07;20.10;99.90
27667;DHT22;15074;50.940;5.282;2023-07-31T13:52:33;20.20;99.90
27667;DHT22;15074;50.940;5.282;2023-07-31T13:54:59;20.30;99.90
27667;DHT22;15074;50.940;5.282;2023-07-31T13:57:24;20.20;99.90
27667;DHT22;15074;50.940;5.282;2023-07-31T13:59:50;20.20;99.90
27667;DHT22;15074;50.940;5.282;2023-07-31T14:02:15;20.20;99.90
27667;DHT22;15074;50.940;5.282;2023-07-31T14:04:41;20.30;99.90
27667;DHT22;15074;50.940;5.282;2023-07-31T14:07:07;20.10;99.90
27667;DHT22;15074;50.940;5.282;2023-07-31T14:09:32;20.10;99.90
27667;DHT22;15074;50.940;5.282;2023-07-31T14:11:58;20.10;99.90
27667;DHT22;15074;50.940;5.282;2023-07-31T14:14:24;20.00;99.90
27667;DHT22;15074;50.940;5.282;2023-07-31T14:16:49;20.00;99.90
27667;DHT22;15074;50.940;5.282;2023-07-31T14:19:15;20.00;99.90
27667;DHT22;15074;50.940;5.282;2023-07-31T14:21:41;19.90;99.90
27667;DHT22;15074;50.940;5.282;2023-07-31T14:24:06;19.80;99.90
27667;DHT22;15074;50.940;5.282;2023-07-31T14:26:32;19.60;99.90
27667;DHT22;15074;50.940;5.282;2023-07-31T14:28:58;19.40;99.90
27667;DHT22;15074;50.940;5.282;2023-07-31T14:31:23;19.10;99.90
27667;DHT22;15074;50.940;5.282;2023-07-31T14:33:49;18.70;99.90
27667;DHT22;15074;50.940;5.282;2023-07-31T14:36:15;18.60;99.90
27667;DHT22;15074;50.940;5.282;2023-07-31T14:38:40;18.60;99.90
27667;DHT22;15074;50.940;5.282;2023-07-31T14:41:06;18.60;99.90
27667;DHT22;15074;50.940;5.282;2023-07-31T14:43:32;18.50;99.90
27667;DHT22;15074;50.940;5.282;2023-07-31T14:45:57;18.40;99.90
27667;DHT22;15074;50.940;5.282;2023-07-31T14:48:26;18.30;99.90
27667;DHT22;15074;50.940;5.282;2023-07-31T14:50:52;18.30;99.90
27667;DHT22;15074;50.940;5.282;2023-07-31T14:53:18;18.20;99.90
27667;DHT22;15074;50.940;5.282;2023-07-31T14:55:43;18.20;99.90
27667;DHT22;15074;50.940;5.282;2023-07-31T14:58:09;18.10;99.90
27667;DHT22;15074;50.940;5.282;2023-07-31T15:00:36;18.20;99.90
27667;DHT22;15074;50.940;5.282;2023-07-31T15:03:02;18.10;99.90
27667;DHT22;15074;50.940;5.282;2023-07-31T15:05:29;18.10;99.90
27667;DHT22;15074;50.940;5.282;2023-07-31T15:07:55;18.00;99.90
27667;DHT22;15074;50.940;5.282;2023-07-31T15:10:21;17.90;99.90
27667;DHT22;15074;50.940;5.282;2023-07-31T15:12:47;17.90;99.90
27667;DHT22;15074;50.940;5.282;2023-07-31T15:15:14;17.90;99.90
27667;DHT22;15074;50.940;5.282;2023-07-31T15:17:40;17.80;99.90
27667;DHT22;15074;50.940;5.282;2023-07-31T15:20:06;17.80;99.90
27667;DHT22;15074;50.940;5.282;2023-07-31T15:22:32;17.80;99.90
27667;DHT22;15074;50.940;5.282;2023-07-31T15:24:58;17.80;99.90
27667;DHT22;15074;50.940;5.282;2023-07-31T15:27:24;17.90;99.90
27667;DHT22;15074;50.940;5.282;2023-07-31T15:29:50;17.80;99.90
27667;DHT22;15074;50.940;5.282;2023-07-31T15:32:17;17.70;99.90
27667;DHT22;15074;50.940;5.282;2023-07-31T15:34:43;17.70;99.90
27667;DHT22;15074;50.940;5.282;2023-07-31T15:37:09;17.70;99.90
27667;DHT22;15074;50.940;5.282;2023-07-31T15:39:34;17.80;99.90